FGSLFGBT

Guest
Details From FGSL - MALABO
To FGBT - BATA
Flight Number -
Tags generated
Created
Modified
Stats Distance 137 nm / 253 km
Max Altitude 9,000 ft / 2,743 m
Waypoints 4
Social Downloads 2
Likes 0
Share

Download

Looking for another format? Having issues loading an existing format? Contact us
Advertisement - Login to hide

Notes

Basic altitude profile: - Ascent Rate: 2500ft/min - Ascent Speed: 250kts - Cruise Altitude: 35000ft - Cruise Speed: 420kts - Descent Rate: 1500ft/min - Descent Speed: 250kts Options: - Use NATs: yes - Use PACOTS: yes - Use low airways: yes - Use high airways: yes

Route

FGSL MOPOT G857G BT FGBT

ID Type Via Altitude (ft/m) Position (lat/lon) Dist (leg/tot) Name
O FGSL APT - 0 / 0 3.75527 / 8.70872 - / 0 nm MALABO
MOPOT FIX - 9,000 / 2,743 2.60417 / 9.78250 94 / 94 nm
BT NDB G857G (AWY-LO) 7,500 / 2,286 1.90572 / 9.80206 41 / 136 nm BATA NDB
O FGBT APT - 0 / 0 1.90547 / 9.80568 0 / 136 nm BATA

Altitude Profile

Advertisement - Login to hide

FGSL

Details ICAO FGSL (SSG)
Name MALABO
Region Equatorial Guinea
Timezone Africa/Malabo (UTC+1.0)
Stats Elevation 76 ft / 23 m (AMSL)
Location 3.755320° 8.708710°
Runways 1
Magnetic Variation 1.017° W

METAR

FGSL 131200Z 09011KT 8000 SCT010 BKN050 29/24 Q1012 NOSIG

Decode

TAF

TAF FGSL 131100Z 1312/1418 22006KT 9999 TS FEW020CB BECMG 1314/1316 4000 TSRA BKN008 FEW018CB TEMPO 1318/1323 TS BECMG 1320/1322 NSW SCT010

Decode

Departure Runways

ID Width Length Bearing (true/mag) Surface Threshold Overrun Markings Lighting
04 151 ft / 46 m 9,674 ft / 2,949 m 41.73° / 42.74° ASPHALT 0 ft / 0 m 194 ft / 59 m PREC-APP EDGE THRESHOLD REIL-OMNI
22 151 ft / 46 m 9,674 ft / 2,949 m 221.73° / 222.74° ASPHALT 0 ft / 0 m 161 ft / 49 m PREC-APP EDGE THRESHOLD REIL-OMNI

FGBT

Details ICAO FGBT (BSG)
Name BATA
Region Equatorial Guinea
Timezone Africa/Malabo (UTC+1.0)
Stats Elevation 13 ft / 4 m (AMSL)
Location 1.905470° 9.805680°
Runways 1
Magnetic Variation 1.074° W

METAR

FGBT 131200Z 32004KT 8000 -TSRA BKN008 FEW020CB 25/25 Q1012

Decode

TAF

TAF FGBT 131100Z 1312/1412 24008KT 9999 TS SCT010 FEW020CB TEMPO 1313/1318 4000 TSRA BKN008 SCT018CB

Decode

Destination Runways

ID Width Length Bearing (true/mag) Surface Threshold Overrun Markings Lighting
04 148 ft / 45 m 6,577 ft / 2,005 m 40.97° / 42.05° ASPHALT 0 ft / 0 m 0 ft / 0 m APP
22 148 ft / 45 m 6,577 ft / 2,005 m 220.97° / 222.05° ASPHALT 0 ft / 0 m 0 ft / 0 m APP

Popular Alternatives